sensor_id;sensor_type;location;lat;lon;timestamp;P1;durP1;ratioP1;P2;durP2;ratioP2
65710;SDS011;52690;54.496;9.030;2023-02-28T00:01:44;5.25;;;2.30;;
65710;SDS011;52690;54.496;9.030;2023-02-28T00:03:44;5.43;;;2.40;;
65710;SDS011;52690;54.496;9.030;2023-02-28T00:05:45;10.80;;;3.25;;
65710;SDS011;52690;54.496;9.030;2023-02-28T00:07:45;3.20;;;1.97;;
65710;SDS011;52690;54.496;9.030;2023-02-28T00:09:45;4.50;;;2.30;;
65710;SDS011;52690;54.496;9.030;2023-02-28T00:11:45;4.60;;;2.33;;
65710;SDS011;52690;54.496;9.030;2023-02-28T00:13:47;6.37;;;2.17;;
65710;SDS011;52690;54.496;9.030;2023-02-28T00:15:47;3.47;;;2.00;;
65710;SDS011;52690;54.496;9.030;2023-02-28T00:17:47;4.77;;;2.03;;
65710;SDS011;52690;54.496;9.030;2023-02-28T00:19:47;4.30;;;2.50;;
65710;SDS011;52690;54.496;9.030;2023-02-28T00:21:48;6.13;;;2.20;;
65710;SDS011;52690;54.496;9.030;2023-02-28T00:23:48;4.30;;;2.00;;
65710;SDS011;52690;54.496;9.030;2023-02-28T00:25:48;2.77;;;1.80;;
65710;SDS011;52690;54.496;9.030;2023-02-28T00:27:48;2.33;;;2.00;;
65710;SDS011;52690;54.496;9.030;2023-02-28T00:29:50;2.60;;;1.80;;
65710;SDS011;52690;54.496;9.030;2023-02-28T00:31:50;2.42;;;1.83;;
65710;SDS011;52690;54.496;9.030;2023-02-28T00:33:50;5.13;;;2.17;;
65710;SDS011;52690;54.496;9.030;2023-02-28T00:35:50;4.20;;;2.87;;
65710;SDS011;52690;54.496;9.030;2023-02-28T00:37:50;6.63;;;3.50;;
65710;SDS011;52690;54.496;9.030;2023-02-28T00:39:50;7.63;;;3.23;;
65710;SDS011;52690;54.496;9.030;2023-02-28T00:41:50;5.83;;;2.40;;
65710;SDS011;52690;54.496;9.030;2023-02-28T00:43:51;4.93;;;2.17;;
65710;SDS011;52690;54.496;9.030;2023-02-28T00:45:52;3.80;;;2.13;;
65710;SDS011;52690;54.496;9.030;2023-02-28T00:47:52;2.63;;;1.77;;
65710;SDS011;52690;54.496;9.030;2023-02-28T00:49:52;3.23;;;2.00;;
65710;SDS011;52690;54.496;9.030;2023-02-28T00:51:53;2.17;;;1.97;;
65710;SDS011;52690;54.496;9.030;2023-02-28T00:53:53;4.68;;;2.05;;
65710;SDS011;52690;54.496;9.030;2023-02-28T00:55:54;2.90;;;1.80;;
65710;SDS011;52690;54.496;9.030;2023-02-28T00:57:54;8.77;;;2.80;;
65710;SDS011;52690;54.496;9.030;2023-02-28T00:59:54;10.10;;;4.53;;
65710;SDS011;52690;54.496;9.030;2023-02-28T01:01:55;14.00;;;5.40;;
65710;SDS011;52690;54.496;9.030;2023-02-28T01:03:56;23.27;;;6.03;;
65710;SDS011;52690;54.496;9.030;2023-02-28T01:05:56;14.48;;;5.57;;
65710;SDS011;52690;54.496;9.030;2023-02-28T01:07:56;12.95;;;4.65;;
65710;SDS011;52690;54.496;9.030;2023-02-28T01:09:56;10.43;;;4.40;;
65710;SDS011;52690;54.496;9.030;2023-02-28T01:11:56;8.30;;;3.57;;
65710;SDS011;52690;54.496;9.030;2023-02-28T01:13:56;10.02;;;4.00;;
65710;SDS011;52690;54.496;9.030;2023-02-28T01:15:57;10.80;;;4.75;;
65710;SDS011;52690;54.496;9.030;2023-02-28T01:17:58;10.17;;;3.97;;
65710;SDS011;52690;54.496;9.030;2023-02-28T01:19:58;5.28;;;2.70;;
65710;SDS011;52690;54.496;9.030;2023-02-28T01:22:00;3.13;;;2.10;;
65710;SDS011;52690;54.496;9.030;2023-02-28T01:24:00;2.33;;;2.10;;
65710;SDS011;52690;54.496;9.030;2023-02-28T01:26:03;3.60;;;2.10;;
65710;SDS011;52690;54.496;9.030;2023-02-28T01:28:04;3.45;;;2.30;;
65710;SDS011;52690;54.496;9.030;2023-02-28T01:30:05;2.50;;;2.13;;
65710;SDS011;52690;54.496;9.030;2023-02-28T01:32:05;4.10;;;2.30;;
65710;SDS011;52690;54.496;9.030;2023-02-28T01:34:06;2.33;;;1.93;;
65710;SDS011;52690;54.496;9.030;2023-02-28T01:36:09;5.55;;;2.20;;
65710;SDS011;52690;54.496;9.030;2023-02-28T01:38:09;7.80;;;3.28;;
65710;SDS011;52690;54.496;9.030;2023-02-28T01:40:09;6.03;;;2.80;;
65710;SDS011;52690;54.496;9.030;2023-02-28T01:42:10;5.03;;;2.92;;
65710;SDS011;52690;54.496;9.030;2023-02-28T01:46:29;3.85;;;2.28;;
65710;SDS011;52690;54.496;9.030;2023-02-28T01:48:30;6.72;;;2.38;;
65710;SDS011;52690;54.496;9.030;2023-02-28T01:50:33;5.20;;;2.53;;
65710;SDS011;52690;54.496;9.030;2023-02-28T01:52:33;16.02;;;2.90;;
65710;SDS011;52690;54.496;9.030;2023-02-28T01:54:34;3.80;;;2.67;;
65710;SDS011;52690;54.496;9.030;2023-02-28T01:56:34;3.83;;;2.45;;
65710;SDS011;52690;54.496;9.030;2023-02-28T01:58:36;4.13;;;2.63;;
65710;SDS011;52690;54.496;9.030;2023-02-28T02:00:36;4.15;;;2.55;;
65710;SDS011;52690;54.496;9.030;2023-02-28T02:02:36;3.67;;;2.67;;
65710;SDS011;52690;54.496;9.030;2023-02-28T02:04:38;4.07;;;2.50;;
65710;SDS011;52690;54.496;9.030;2023-02-28T02:06:42;3.17;;;2.40;;
65710;SDS011;52690;54.496;9.030;2023-02-28T02:08:43;2.75;;;2.30;;
65710;SDS011;52690;54.496;9.030;2023-02-28T02:10:44;4.13;;;2.80;;
65710;SDS011;52690;54.496;9.030;2023-02-28T02:12:49;5.07;;;2.83;;
65710;SDS011;52690;54.496;9.030;2023-02-28T02:14:55;3.63;;;2.35;;
65710;SDS011;52690;54.496;9.030;2023-02-28T02:17:11;5.88;;;2.70;;
65710;SDS011;52690;54.496;9.030;2023-02-28T02:19:24;3.90;;;2.90;;
65710;SDS011;52690;54.496;9.030;2023-02-28T02:21:46;6.43;;;2.70;;
65710;SDS011;52690;54.496;9.030;2023-02-28T02:24:03;5.95;;;3.83;;
65710;SDS011;52690;54.496;9.030;2023-02-28T02:31:02;5.82;;;2.90;;
65710;SDS011;52690;54.496;9.030;2023-02-28T02:33:06;6.53;;;3.13;;
65710;SDS011;52690;54.496;9.030;2023-02-28T02:35:13;3.13;;;2.53;;
65710;SDS011;52690;54.496;9.030;2023-02-28T02:37:21;5.22;;;2.60;;
65710;SDS011;52690;54.496;9.030;2023-02-28T02:39:26;5.83;;;2.70;;
65710;SDS011;52690;54.496;9.030;2023-02-28T02:41:31;3.97;;;3.00;;
65710;SDS011;52690;54.496;9.030;2023-02-28T02:43:34;4.18;;;2.33;;
65710;SDS011;52690;54.496;9.030;2023-02-28T02:45:37;3.67;;;2.80;;
65710;SDS011;52690;54.496;9.030;2023-02-28T02:47:39;3.20;;;2.90;;
65710;SDS011;52690;54.496;9.030;2023-02-28T02:49:42;3.53;;;2.78;;
65710;SDS011;52690;54.496;9.030;2023-02-28T02:51:44;4.90;;;2.78;;
65710;SDS011;52690;54.496;9.030;2023-02-28T02:53:46;2.63;;;2.42;;
65710;SDS011;52690;54.496;9.030;2023-02-28T02:55:48;2.42;;;2.20;;
65710;SDS011;52690;54.496;9.030;2023-02-28T02:57:51;2.60;;;2.28;;
65710;SDS011;52690;54.496;9.030;2023-02-28T02:59:52;8.25;;;2.42;;
65710;SDS011;52690;54.496;9.030;2023-02-28T03:01:54;3.78;;;3.05;;
65710;SDS011;52690;54.496;9.030;2023-02-28T03:03:56;4.07;;;2.97;;
65710;SDS011;52690;54.496;9.030;2023-02-28T03:05:57;4.63;;;2.78;;
65710;SDS011;52690;54.496;9.030;2023-02-28T03:07:59;3.95;;;2.75;;
65710;SDS011;52690;54.496;9.030;2023-02-28T03:09:59;3.95;;;2.42;;
65710;SDS011;52690;54.496;9.030;2023-02-28T03:11:59;3.63;;;2.77;;
65710;SDS011;52690;54.496;9.030;2023-02-28T03:14:09;3.67;;;2.70;;
65710;SDS011;52690;54.496;9.030;2023-02-28T03:18:12;4.97;;;3.20;;
65710;SDS011;52690;54.496;9.030;2023-02-28T03:20:17;4.13;;;3.10;;
65710;SDS011;52690;54.496;9.030;2023-02-28T03:22:28;4.35;;;2.70;;
65710;SDS011;52690;54.496;9.030;2023-02-28T03:24:34;6.80;;;4.53;;
65710;SDS011;52690;54.496;9.030;2023-02-28T03:26:39;4.65;;;3.42;;
65710;SDS011;52690;54.496;9.030;2023-02-28T03:28:43;4.13;;;3.30;;
65710;SDS011;52690;54.496;9.030;2023-02-28T03:30:48;5.85;;;3.47;;
65710;SDS011;52690;54.496;9.030;2023-02-28T03:32:51;5.72;;;3.50;;
65710;SDS011;52690;54.496;9.030;2023-02-28T03:34:54;4.70;;;3.58;;
65710;SDS011;52690;54.496;9.030;2023-02-28T03:36:59;7.80;;;3.47;;
65710;SDS011;52690;54.496;9.030;2023-02-28T03:39:04;6.00;;;3.60;;
65710;SDS011;52690;54.496;9.030;2023-02-28T03:41:09;6.10;;;3.95;;
65710;SDS011;52690;54.496;9.030;2023-02-28T03:43:12;9.20;;;4.25;;
65710;SDS011;52690;54.496;9.030;2023-02-28T03:45:15;4.78;;;3.20;;
65710;SDS011;52690;54.496;9.030;2023-02-28T03:47:17;4.20;;;3.50;;
65710;SDS011;52690;54.496;9.030;2023-02-28T03:49:18;5.97;;;4.00;;
65710;SDS011;52690;54.496;9.030;2023-02-28T03:51:20;6.72;;;3.30;;
65710;SDS011;52690;54.496;9.030;2023-02-28T03:53:23;12.13;;;3.35;;
65710;SDS011;52690;54.496;9.030;2023-02-28T03:55:24;9.30;;;3.40;;
65710;SDS011;52690;54.496;9.030;2023-02-28T03:57:27;6.97;;;3.97;;
65710;SDS011;52690;54.496;9.030;2023-02-28T03:59:32;4.28;;;3.88;;
65710;SDS011;52690;54.496;9.030;2023-02-28T04:01:35;5.03;;;3.95;;
65710;SDS011;52690;54.496;9.030;2023-02-28T04:03:35;6.47;;;4.47;;
65710;SDS011;52690;54.496;9.030;2023-02-28T04:05:43;6.07;;;4.30;;
65710;SDS011;52690;54.496;9.030;2023-02-28T04:07:46;8.13;;;3.22;;
65710;SDS011;52690;54.496;9.030;2023-02-28T04:09:46;4.88;;;3.33;;
65710;SDS011;52690;54.496;9.030;2023-02-28T04:11:48;5.80;;;3.87;;
65710;SDS011;52690;54.496;9.030;2023-02-28T04:13:50;4.22;;;3.53;;
65710;SDS011;52690;54.496;9.030;2023-02-28T04:15:51;5.70;;;3.65;;
65710;SDS011;52690;54.496;9.030;2023-02-28T04:17:51;4.27;;;3.50;;
65710;SDS011;52690;54.496;9.030;2023-02-28T04:19:51;5.27;;;3.27;;
65710;SDS011;52690;54.496;9.030;2023-02-28T04:21:52;5.72;;;4.32;;
65710;SDS011;52690;54.496;9.030;2023-02-28T04:23:53;7.03;;;4.35;;
65710;SDS011;52690;54.496;9.030;2023-02-28T04:25:54;8.30;;;4.28;;
65710;SDS011;52690;54.496;9.030;2023-02-28T04:27:54;6.15;;;4.25;;
65710;SDS011;52690;54.496;9.030;2023-02-28T04:29:56;4.80;;;3.57;;
65710;SDS011;52690;54.496;9.030;2023-02-28T04:31:56;4.00;;;3.30;;
65710;SDS011;52690;54.496;9.030;2023-02-28T04:33:57;8.27;;;3.17;;
65710;SDS011;52690;54.496;9.030;2023-02-28T04:35:58;6.97;;;3.70;;
65710;SDS011;52690;54.496;9.030;2023-02-28T04:37:58;9.30;;;5.20;;
65710;SDS011;52690;54.496;9.030;2023-02-28T04:39:58;6.63;;;5.50;;
65710;SDS011;52690;54.496;9.030;2023-02-28T04:41:58;12.50;;;7.07;;
65710;SDS011;52690;54.496;9.030;2023-02-28T04:43:58;10.90;;;7.37;;
65710;SDS011;52690;54.496;9.030;2023-02-28T04:46:01;11.88;;;7.72;;
65710;SDS011;52690;54.496;9.030;2023-02-28T04:48:01;12.20;;;7.85;;
65710;SDS011;52690;54.496;9.030;2023-02-28T04:50:01;12.43;;;7.47;;
65710;SDS011;52690;54.496;9.030;2023-02-28T04:52:02;10.85;;;7.05;;
65710;SDS011;52690;54.496;9.030;2023-02-28T04:54:02;10.20;;;7.00;;
65710;SDS011;52690;54.496;9.030;2023-02-28T04:56:02;10.27;;;6.80;;
65710;SDS011;52690;54.496;9.030;2023-02-28T04:58:02;9.98;;;7.40;;
65710;SDS011;52690;54.496;9.030;2023-02-28T05:00:03;12.37;;;7.10;;
65710;SDS011;52690;54.496;9.030;2023-02-28T05:02:04;8.68;;;6.38;;
65710;SDS011;52690;54.496;9.030;2023-02-28T05:04:04;10.00;;;6.07;;
65710;SDS011;52690;54.496;9.030;2023-02-28T05:06:05;7.80;;;5.33;;
65710;SDS011;52690;54.496;9.030;2023-02-28T05:08:05;9.85;;;5.63;;
65710;SDS011;52690;54.496;9.030;2023-02-28T05:10:05;9.53;;;5.60;;
65710;SDS011;52690;54.496;9.030;2023-02-28T05:12:06;7.63;;;4.95;;
65710;SDS011;52690;54.496;9.030;2023-02-28T05:14:07;9.90;;;5.10;;
65710;SDS011;52690;54.496;9.030;2023-02-28T05:16:09;10.13;;;5.18;;
65710;SDS011;52690;54.496;9.030;2023-02-28T05:18:10;11.85;;;4.90;;
65710;SDS011;52690;54.496;9.030;2023-02-28T05:20:11;9.30;;;5.18;;
65710;SDS011;52690;54.496;9.030;2023-02-28T05:22:12;6.00;;;4.68;;
65710;SDS011;52690;54.496;9.030;2023-02-28T05:24:13;8.20;;;4.57;;
65710;SDS011;52690;54.496;9.030;2023-02-28T05:26:13;6.13;;;4.53;;
65710;SDS011;52690;54.496;9.030;2023-02-28T05:28:13;6.00;;;3.90;;
65710;SDS011;52690;54.496;9.030;2023-02-28T05:30:13;7.83;;;4.83;;
65710;SDS011;52690;54.496;9.030;2023-02-28T05:32:14;7.03;;;3.70;;
65710;SDS011;52690;54.496;9.030;2023-02-28T05:34:15;6.90;;;3.80;;
65710;SDS011;52690;54.496;9.030;2023-02-28T05:36:15;6.53;;;3.47;;
65710;SDS011;52690;54.496;9.030;2023-02-28T05:38:16;4.77;;;3.53;;
65710;SDS011;52690;54.496;9.030;2023-02-28T05:40:16;7.83;;;3.77;;
65710;SDS011;52690;54.496;9.030;2023-02-28T05:42:16;4.63;;;3.90;;
65710;SDS011;52690;54.496;9.030;2023-02-28T05:44:16;9.40;;;4.30;;
65710;SDS011;52690;54.496;9.030;2023-02-28T05:46:17;6.87;;;4.17;;
65710;SDS011;52690;54.496;9.030;2023-02-28T05:48:17;5.13;;;4.10;;
65710;SDS011;52690;54.496;9.030;2023-02-28T05:50:18;6.70;;;4.10;;
65710;SDS011;52690;54.496;9.030;2023-02-28T05:52:18;7.25;;;4.50;;
65710;SDS011;52690;54.496;9.030;2023-02-28T05:54:19;6.10;;;4.20;;
65710;SDS011;52690;54.496;9.030;2023-02-28T05:56:19;8.23;;;4.30;;
65710;SDS011;52690;54.496;9.030;2023-02-28T05:58:19;8.97;;;4.90;;
65710;SDS011;52690;54.496;9.030;2023-02-28T06:00:19;6.90;;;4.40;;
65710;SDS011;52690;54.496;9.030;2023-02-28T06:02:19;7.35;;;4.88;;
65710;SDS011;52690;54.496;9.030;2023-02-28T06:04:20;8.17;;;5.10;;
65710;SDS011;52690;54.496;9.030;2023-02-28T06:06:22;17.23;;;7.80;;
65710;SDS011;52690;54.496;9.030;2023-02-28T06:08:22;21.17;;;10.70;;
65710;SDS011;52690;54.496;9.030;2023-02-28T06:10:22;19.97;;;9.13;;
65710;SDS011;52690;54.496;9.030;2023-02-28T06:12:22;8.80;;;6.00;;
65710;SDS011;52690;54.496;9.030;2023-02-28T06:14:22;8.73;;;5.27;;
65710;SDS011;52690;54.496;9.030;2023-02-28T06:16:23;5.93;;;4.53;;
65710;SDS011;52690;54.496;9.030;2023-02-28T06:18:23;8.45;;;5.00;;
65710;SDS011;52690;54.496;9.030;2023-02-28T06:20:23;10.52;;;7.55;;
65710;SDS011;52690;54.496;9.030;2023-02-28T06:22:25;15.43;;;9.70;;
65710;SDS011;52690;54.496;9.030;2023-02-28T06:24:25;21.13;;;13.23;;
65710;SDS011;52690;54.496;9.030;2023-02-28T06:26:25;29.20;;;15.95;;
65710;SDS011;52690;54.496;9.030;2023-02-28T06:28:26;20.63;;;13.20;;
65710;SDS011;52690;54.496;9.030;2023-02-28T06:30:26;11.43;;;6.67;;
65710;SDS011;52690;54.496;9.030;2023-02-28T06:32:26;10.20;;;5.00;;
65710;SDS011;52690;54.496;9.030;2023-02-28T06:34:26;9.60;;;5.22;;
65710;SDS011;52690;54.496;9.030;2023-02-28T06:36:26;9.67;;;4.97;;
65710;SDS011;52690;54.496;9.030;2023-02-28T06:38:28;10.88;;;5.00;;
65710;SDS011;52690;54.496;9.030;2023-02-28T06:40:28;9.30;;;6.05;;
65710;SDS011;52690;54.496;9.030;2023-02-28T06:42:28;12.03;;;7.30;;
65710;SDS011;52690;54.496;9.030;2023-02-28T06:44:28;20.33;;;9.30;;
65710;SDS011;52690;54.496;9.030;2023-02-28T06:46:29;15.35;;;8.63;;
65710;SDS011;52690;54.496;9.030;2023-02-28T06:48:29;13.70;;;7.75;;
65710;SDS011;52690;54.496;9.030;2023-02-28T06:50:29;10.50;;;6.13;;
65710;SDS011;52690;54.496;9.030;2023-02-28T06:52:29;13.50;;;6.43;;
65710;SDS011;52690;54.496;9.030;2023-02-28T06:54:31;9.83;;;5.23;;
65710;SDS011;52690;54.496;9.030;2023-02-28T06:56:31;9.90;;;5.93;;
65710;SDS011;52690;54.496;9.030;2023-02-28T06:58:31;10.40;;;6.60;;
65710;SDS011;52690;54.496;9.030;2023-02-28T07:00:31;11.10;;;5.87;;
65710;SDS011;52690;54.496;9.030;2023-02-28T07:02:31;7.87;;;5.80;;
65710;SDS011;52690;54.496;9.030;2023-02-28T07:04:31;10.17;;;6.17;;
65710;SDS011;52690;54.496;9.030;2023-02-28T07:06:32;7.73;;;5.23;;
65710;SDS011;52690;54.496;9.030;2023-02-28T07:08:32;15.80;;;5.07;;
65710;SDS011;52690;54.496;9.030;2023-02-28T07:10:34;9.02;;;5.13;;
65710;SDS011;52690;54.496;9.030;2023-02-28T07:12:34;11.98;;;5.38;;
65710;SDS011;52690;54.496;9.030;2023-02-28T07:14:36;6.80;;;4.88;;
65710;SDS011;52690;54.496;9.030;2023-02-28T07:16:36;12.77;;;5.93;;
65710;SDS011;52690;54.496;9.030;2023-02-28T07:18:36;8.17;;;5.50;;
65710;SDS011;52690;54.496;9.030;2023-02-28T07:20:37;9.18;;;6.25;;
65710;SDS011;52690;54.496;9.030;2023-02-28T07:22:37;7.60;;;5.17;;
65710;SDS011;52690;54.496;9.030;2023-02-28T07:24:37;14.80;;;5.90;;
65710;SDS011;52690;54.496;9.030;2023-02-28T07:26:39;12.90;;;5.60;;
65710;SDS011;52690;54.496;9.030;2023-02-28T07:28:39;14.98;;;6.90;;
65710;SDS011;52690;54.496;9.030;2023-02-28T07:30:39;17.50;;;8.43;;
65710;SDS011;52690;54.496;9.030;2023-02-28T07:32:39;14.20;;;7.90;;
65710;SDS011;52690;54.496;9.030;2023-02-28T07:34:39;11.10;;;6.83;;
65710;SDS011;52690;54.496;9.030;2023-02-28T07:36:39;15.17;;;7.90;;
65710;SDS011;52690;54.496;9.030;2023-02-28T07:38:39;13.20;;;7.20;;
65710;SDS011;52690;54.496;9.030;2023-02-28T07:40:40;17.87;;;7.83;;
65710;SDS011;52690;54.496;9.030;2023-02-28T07:42:41;16.07;;;7.60;;
65710;SDS011;52690;54.496;9.030;2023-02-28T07:44:41;14.02;;;9.02;;
65710;SDS011;52690;54.496;9.030;2023-02-28T07:46:41;17.00;;;9.20;;
65710;SDS011;52690;54.496;9.030;2023-02-28T07:48:42;15.90;;;9.20;;
65710;SDS011;52690;54.496;9.030;2023-02-28T07:50:42;18.98;;;9.68;;
65710;SDS011;52690;54.496;9.030;2023-02-28T07:52:42;16.50;;;9.67;;
65710;SDS011;52690;54.496;9.030;2023-02-28T07:54:43;16.95;;;9.23;;
65710;SDS011;52690;54.496;9.030;2023-02-28T07:56:43;17.37;;;9.77;;
65710;SDS011;52690;54.496;9.030;2023-02-28T07:58:44;17.83;;;9.53;;
65710;SDS011;52690;54.496;9.030;2023-02-28T08:00:44;18.70;;;9.60;;
65710;SDS011;52690;54.496;9.030;2023-02-28T08:02:44;17.43;;;10.00;;
65710;SDS011;52690;54.496;9.030;2023-02-28T08:04:45;18.10;;;9.83;;
65710;SDS011;52690;54.496;9.030;2023-02-28T08:06:45;13.33;;;8.87;;
65710;SDS011;52690;54.496;9.030;2023-02-28T08:08:46;17.98;;;9.35;;
65710;SDS011;52690;54.496;9.030;2023-02-28T08:10:46;18.92;;;10.02;;
65710;SDS011;52690;54.496;9.030;2023-02-28T08:12:46;19.03;;;8.83;;
65710;SDS011;52690;54.496;9.030;2023-02-28T08:14:48;16.80;;;9.37;;
65710;SDS011;52690;54.496;9.030;2023-02-28T08:16:48;14.60;;;9.15;;
65710;SDS011;52690;54.496;9.030;2023-02-28T08:18:48;16.27;;;9.00;;
65710;SDS011;52690;54.496;9.030;2023-02-28T08:20:48;13.43;;;8.95;;
65710;SDS011;52690;54.496;9.030;2023-02-28T08:22:48;18.60;;;8.40;;
65710;SDS011;52690;54.496;9.030;2023-02-28T08:24:49;16.37;;;9.80;;
65710;SDS011;52690;54.496;9.030;2023-02-28T08:26:49;18.20;;;9.07;;
65710;SDS011;52690;54.496;9.030;2023-02-28T08:28:49;16.00;;;8.73;;
65710;SDS011;52690;54.496;9.030;2023-02-28T08:30:50;16.63;;;8.73;;
65710;SDS011;52690;54.496;9.030;2023-02-28T08:32:51;12.60;;;8.40;;
65710;SDS011;52690;54.496;9.030;2023-02-28T08:34:51;17.73;;;9.17;;
65710;SDS011;52690;54.496;9.030;2023-02-28T08:36:51;15.20;;;8.33;;
65710;SDS011;52690;54.496;9.030;2023-02-28T08:38:51;17.63;;;9.77;;
65710;SDS011;52690;54.496;9.030;2023-02-28T08:40:56;12.77;;;8.57;;
65710;SDS011;52690;54.496;9.030;2023-02-28T08:42:57;14.20;;;8.50;;
65710;SDS011;52690;54.496;9.030;2023-02-28T08:44:57;12.33;;;7.30;;
65710;SDS011;52690;54.496;9.030;2023-02-28T08:46:58;14.23;;;8.00;;
65710;SDS011;52690;54.496;9.030;2023-02-28T08:48:58;11.68;;;7.55;;
65710;SDS011;52690;54.496;9.030;2023-02-28T08:50:59;10.53;;;6.50;;
65710;SDS011;52690;54.496;9.030;2023-02-28T08:52:59;11.55;;;7.30;;
65710;SDS011;52690;54.496;9.030;2023-02-28T08:55:00;11.33;;;7.73;;
65710;SDS011;52690;54.496;9.030;2023-02-28T08:57:00;9.15;;;6.65;;
65710;SDS011;52690;54.496;9.030;2023-02-28T08:59:00;10.27;;;6.90;;
65710;SDS011;52690;54.496;9.030;2023-02-28T09:01:00;10.67;;;7.00;;
65710;SDS011;52690;54.496;9.030;2023-02-28T09:03:02;9.65;;;7.35;;
65710;SDS011;52690;54.496;9.030;2023-02-28T09:05:02;11.25;;;7.43;;
65710;SDS011;52690;54.496;9.030;2023-02-28T09:07:02;11.50;;;7.03;;
65710;SDS011;52690;54.496;9.030;2023-02-28T09:09:02;7.93;;;6.80;;
65710;SDS011;52690;54.496;9.030;2023-02-28T09:11:03;12.45;;;7.57;;
65710;SDS011;52690;54.496;9.030;2023-02-28T09:13:03;12.02;;;7.80;;
65710;SDS011;52690;54.496;9.030;2023-02-28T09:15:04;12.50;;;7.70;;
65710;SDS011;52690;54.496;9.030;2023-02-28T09:17:04;11.15;;;7.43;;
65710;SDS011;52690;54.496;9.030;2023-02-28T09:19:06;10.10;;;7.53;;
65710;SDS011;52690;54.496;9.030;2023-02-28T09:21:06;13.07;;;7.40;;
65710;SDS011;52690;54.496;9.030;2023-02-28T09:23:07;10.75;;;7.40;;
65710;SDS011;52690;54.496;9.030;2023-02-28T09:25:07;9.00;;;6.95;;
65710;SDS011;52690;54.496;9.030;2023-02-28T09:27:07;12.07;;;7.07;;
65710;SDS011;52690;54.496;9.030;2023-02-28T09:29:08;10.70;;;7.13;;
65710;SDS011;52690;54.496;9.030;2023-02-28T09:31:10;14.13;;;7.72;;
65710;SDS011;52690;54.496;9.030;2023-02-28T09:33:11;8.98;;;7.00;;
65710;SDS011;52690;54.496;9.030;2023-02-28T09:35:13;11.02;;;7.50;;
65710;SDS011;52690;54.496;9.030;2023-02-28T09:37:13;11.52;;;7.72;;
65710;SDS011;52690;54.496;9.030;2023-02-28T09:39:13;12.37;;;7.80;;
65710;SDS011;52690;54.496;9.030;2023-02-28T09:41:14;9.47;;;7.30;;
65710;SDS011;52690;54.496;9.030;2023-02-28T09:43:15;13.43;;;7.93;;
65710;SDS011;52690;54.496;9.030;2023-02-28T09:45:19;13.63;;;7.85;;
65710;SDS011;52690;54.496;9.030;2023-02-28T09:47:25;13.55;;;7.75;;
65710;SDS011;52690;54.496;9.030;2023-02-28T09:49:29;10.48;;;7.18;;
65710;SDS011;52690;54.496;9.030;2023-02-28T09:51:38;14.50;;;7.57;;
65710;SDS011;52690;54.496;9.030;2023-02-28T09:53:40;10.85;;;7.60;;
65710;SDS011;52690;54.496;9.030;2023-02-28T09:55:42;11.85;;;7.00;;
65710;SDS011;52690;54.496;9.030;2023-02-28T09:57:44;8.00;;;6.50;;
65710;SDS011;52690;54.496;9.030;2023-02-28T09:59:49;8.48;;;6.05;;
65710;SDS011;52690;54.496;9.030;2023-02-28T10:01:52;8.48;;;5.82;;
65710;SDS011;52690;54.496;9.030;2023-02-28T10:03:55;9.90;;;6.30;;
65710;SDS011;52690;54.496;9.030;2023-02-28T10:05:57;10.70;;;6.90;;
65710;SDS011;52690;54.496;9.030;2023-02-28T10:08:02;8.18;;;6.28;;
65710;SDS011;52690;54.496;9.030;2023-02-28T10:10:04;9.90;;;7.25;;
65710;SDS011;52690;54.496;9.030;2023-02-28T10:12:08;10.85;;;6.88;;
65710;SDS011;52690;54.496;9.030;2023-02-28T10:14:10;11.65;;;6.75;;
65710;SDS011;52690;54.496;9.030;2023-02-28T10:16:13;12.77;;;7.15;;
65710;SDS011;52690;54.496;9.030;2023-02-28T10:18:14;9.35;;;6.32;;
65710;SDS011;52690;54.496;9.030;2023-02-28T10:20:17;12.35;;;6.93;;
65710;SDS011;52690;54.496;9.030;2023-02-28T10:22:20;9.95;;;6.50;;
65710;SDS011;52690;54.496;9.030;2023-02-28T10:24:26;9.80;;;6.70;;
65710;SDS011;52690;54.496;9.030;2023-02-28T10:26:28;10.15;;;7.05;;
65710;SDS011;52690;54.496;9.030;2023-02-28T10:28:32;9.05;;;7.20;;
65710;SDS011;52690;54.496;9.030;2023-02-28T10:30:32;9.32;;;7.05;;
65710;SDS011;52690;54.496;9.030;2023-02-28T10:32:33;8.13;;;6.97;;
65710;SDS011;52690;54.496;9.030;2023-02-28T10:34:33;9.20;;;6.47;;
65710;SDS011;52690;54.496;9.030;2023-02-28T10:36:34;11.57;;;6.73;;
65710;SDS011;52690;54.496;9.030;2023-02-28T10:38:35;9.03;;;6.87;;
65710;SDS011;52690;54.496;9.030;2023-02-28T10:40:37;8.35;;;6.63;;
65710;SDS011;52690;54.496;9.030;2023-02-28T10:42:37;9.82;;;6.50;;
65710;SDS011;52690;54.496;9.030;2023-02-28T10:44:37;10.60;;;6.90;;
65710;SDS011;52690;54.496;9.030;2023-02-28T10:46:37;8.60;;;6.37;;
65710;SDS011;52690;54.496;9.030;2023-02-28T10:48:39;8.70;;;6.18;;
65710;SDS011;52690;54.496;9.030;2023-02-28T10:50:42;10.45;;;6.93;;
65710;SDS011;52690;54.496;9.030;2023-02-28T10:52:42;9.70;;;7.32;;
65710;SDS011;52690;54.496;9.030;2023-02-28T10:54:43;8.80;;;6.75;;
65710;SDS011;52690;54.496;9.030;2023-02-28T10:56:44;10.03;;;6.67;;
65710;SDS011;52690;54.496;9.030;2023-02-28T10:58:46;8.85;;;6.50;;
65710;SDS011;52690;54.496;9.030;2023-02-28T11:00:47;8.43;;;6.60;;
65710;SDS011;52690;54.496;9.030;2023-02-28T11:02:47;8.52;;;6.68;;
65710;SDS011;52690;54.496;9.030;2023-02-28T11:04:48;9.75;;;6.80;;
65710;SDS011;52690;54.496;9.030;2023-02-28T11:06:51;9.50;;;7.00;;
65710;SDS011;52690;54.496;9.030;2023-02-28T11:08:56;10.05;;;6.65;;
65710;SDS011;52690;54.496;9.030;2023-02-28T11:10:57;10.68;;;6.78;;
65710;SDS011;52690;54.496;9.030;2023-02-28T11:13:00;8.32;;;6.30;;
65710;SDS011;52690;54.496;9.030;2023-02-28T11:15:02;7.93;;;5.90;;
65710;SDS011;52690;54.496;9.030;2023-02-28T11:17:11;7.45;;;6.20;;
65710;SDS011;52690;54.496;9.030;2023-02-28T11:19:16;9.48;;;6.00;;
65710;SDS011;52690;54.496;9.030;2023-02-28T11:21:22;9.20;;;6.55;;
65710;SDS011;52690;54.496;9.030;2023-02-28T11:23:23;10.35;;;5.78;;
65710;SDS011;52690;54.496;9.030;2023-02-28T11:25:25;7.38;;;5.65;;
65710;SDS011;52690;54.496;9.030;2023-02-28T11:27:26;10.18;;;5.45;;
65710;SDS011;52690;54.496;9.030;2023-02-28T11:29:42;8.93;;;5.35;;
65710;SDS011;52690;54.496;9.030;2023-02-28T11:32:00;9.23;;;5.32;;
65710;SDS011;52690;54.496;9.030;2023-02-28T11:34:00;8.82;;;5.60;;
65710;SDS011;52690;54.496;9.030;2023-02-28T11:36:01;10.83;;;6.30;;
65710;SDS011;52690;54.496;9.030;2023-02-28T11:38:02;10.23;;;5.97;;
65710;SDS011;52690;54.496;9.030;2023-02-28T11:40:04;9.67;;;5.77;;
65710;SDS011;52690;54.496;9.030;2023-02-28T11:42:15;10.30;;;5.90;;
65710;SDS011;52690;54.496;9.030;2023-02-28T11:44:23;9.65;;;5.47;;
65710;SDS011;52690;54.496;9.030;2023-02-28T11:46:31;8.52;;;5.25;;
65710;SDS011;52690;54.496;9.030;2023-02-28T11:48:36;10.23;;;5.65;;
65710;SDS011;52690;54.496;9.030;2023-02-28T11:50:44;12.00;;;7.68;;
65710;SDS011;52690;54.496;9.030;2023-02-28T11:52:47;12.20;;;6.85;;
65710;SDS011;52690;54.496;9.030;2023-02-28T11:54:59;8.77;;;5.65;;
65710;SDS011;52690;54.496;9.030;2023-02-28T11:57:03;8.98;;;5.45;;
65710;SDS011;52690;54.496;9.030;2023-02-28T11:59:25;8.65;;;5.50;;
65710;SDS011;52690;54.496;9.030;2023-02-28T12:01:38;7.63;;;5.50;;
65710;SDS011;52690;54.496;9.030;2023-02-28T12:03:44;8.07;;;5.35;;
65710;SDS011;52690;54.496;9.030;2023-02-28T12:05:45;12.38;;;5.65;;
65710;SDS011;52690;54.496;9.030;2023-02-28T12:07:48;8.10;;;5.22;;
65710;SDS011;52690;54.496;9.030;2023-02-28T12:09:53;5.65;;;4.82;;
65710;SDS011;52690;54.496;9.030;2023-02-28T12:11:57;8.30;;;5.25;;
65710;SDS011;52690;54.496;9.030;2023-02-28T12:14:03;7.18;;;5.07;;
65710;SDS011;52690;54.496;9.030;2023-02-28T12:16:13;7.75;;;4.75;;
65710;SDS011;52690;54.496;9.030;2023-02-28T12:20:21;6.35;;;4.55;;
65710;SDS011;52690;54.496;9.030;2023-02-28T12:22:27;7.72;;;4.78;;